Cunningham, Tennessee
Current Conditions -  °F | °C
As of 6:52 AM on Monday 20 Oct 2014 (Local Time) from KCKV Reporting Station
Clear Clear  
Wind Chill: 45°   Ceiling: Unl
Heat Index: 45°   Visibility: 9mi
Dew Point: 45°   Wind: 3mph
Humidity: 100%   Direction: 150°SSE
Pressure: 30.06"   Gusts: NA
Location:  36.39°N, 87.39°W
Report Text: KCKV 201152Z AUTO 15003KT 9SM CLR 07/07 A3006 RMK AO2 SLP180 T00720072 10089 20061 58001
Loading
Personal Weather Stations






























Interactive Weather Map
Tropical Storm Tracking
New forecast layout! Learn more

10-Day Weather Forecast

Advertisements
Track Severe Weather on mobile